MS62 weather

Davis Field
Olive Branch, Mississippi, United States

Public forecast

Using degrees Fahrenheit for public forecast. Weather courtesy of forecast.io.

METAR (pilot weather report)

Closest report is Olive Branch Airport, 1.6 nm (3.0 km) ESE. Retrieved 2019/08/21 21:50 UTC (36 minutes ago):

KOLV 212150Z 09005KT 10SM FEW050 33/21 A2996

TAF (pilot weather forecast)

Closest forecast is Memphis International Airport, 8.5 nm (15.7 km) WNW. Retrieved 2019/08/21 18:40 UTC (4 hours ago):

TAF KMEM 211737Z 2118/2224 25006KT P6SM SCT040 BKN250 FM212100 21006KT P6SM VCSH SCT050 BKN250 FM220000 18005KT P6SM SCT250 FM220700 19005KT P6SM SCT040 BKN250 TEMPO 2212/2216 6SM -SHRA BKN040 FM222100 22008KT P6SM VCSH SCT040 BKN250